Station: Bathurst Airport  

  Atmospheric Gas Attenuation - ITU Rec 676-11   ----------------- dB/100km -----------------
Date Time Temp RH % AH g/m3 Dew Point Wind Direction Speed kph Gust kph Barometer mB Rainfall Since 9am 24GHz 47GHz 76GHz 122GHz 134GHz 241GHz
08/05 12:30 8.9 74 6.48 4.5 32 39 1022 0 15.3 24.2 34.0 88.7 76.7 261.6
08/05 12:20 9.9 73 6.82 5.3 24 32 1022 0 16.0 24.5 34.9 91.2 80.1 273.8
08/05 12:10 9.6 71 6.51 4.6 32 35 1022.1 0 15.3 24.0 33.8 88.3 76.4 260.7
08/05 12:00 9.4 71 6.42 4.4 22 32 1022.1 0 15.1 24.0 33.5 87.5 75.4 257.2
08/05 11:50 9.6 71 6.51 4.6 22 26 1022.2 0 15.3 24.0 33.8 88.3 76.4 260.7
08/05 11:40 9.1 72 6.39 4.3 24 28 1022.4 0 15.1 24.0 33.6 87.6 75.3 256.9
08/05 11:30 9.1 73 6.48 4.5 17 26 1022.5 0 15.3 24.1 33.9 88.5 76.5 261.0
08/05 11:20 8.5 76 6.49 4.5 17 19 1022.6 0 15.3 24.3 34.2 89.3 77.2 263.5
08/05 11:10 8.4 75 6.36 4.2 26 32 1022.7 0 15.0 24.1 33.7 88.1 75.6 257.9
08/05 11:00 8 77 6.37 4.2 24 33 1022.9 0 15.1 24.3 34.0 88.6 76.2 259.7
08/05 10:50 8 78 6.45 4.4 26 28 1023 0 15.2 24.4 34.3 89.5 77.2 263.4
08/05 10:40 7.9 80 6.57 4.7 24 28 1023.1 0 15.5 24.6 34.8 90.9 78.9 269.4
08/05 10:30 7.4 82 6.52 4.5 20 26 1023.2 0 15.4 24.7 34.8 91.0 78.8 268.8
08/05 10:20 7.1 83 6.48 4.4 17 20 1023.2 0 15.3 24.7 34.8 90.9 78.5 267.9
08/05 10:10 6.8 82 6.27 3.9 17 20 1023.5 0 14.9 24.5 34.1 89.0 76.1 259.1
08/05 10:00 6.7 83 6.31 4 13 20 1023.2 0 15.0 24.5 34.3 89.5 76.7 261.2
08/05 09:50 6.6 87 6.57 4.6 11 13 1023.1 0 15.5 25.0 35.4 92.4 80.3 273.9
08/05 09:40 5.9 86 6.2 3.7 13 13 1023.4 0 14.8 24.6 34.2 89.2 76.0 258.7
08/05 09:30 5.9 87 6.28 3.9 11 15 1023.3 0 15.0 24.7 34.5 90.1 77.1 262.5
08/05 09:20 5.8 86 6.16 3.6 11 13 1023.5 0 14.7 24.6 34.1 88.9 75.5 257.2
08/05 09:10 5.7 85 6.05 3.4 15 17 1023.4 0 14.5 24.4 33.7 87.8 74.2 252.3
08/05 09:00 5.6 86 6.08 3.4 20 26 1023.2 0 14.5 24.5 33.8 88.2 74.6 254.0
08/05 08:50 5.6 86 6.08 3.4 22 24 1023.2 0 14.5 24.5 33.8 88.2 74.6 254.0
08/05 08:40 5.8 83 5.95 3.1 20 24 1023.1 0 14.2 24.2 33.2 86.6 72.7 247.2
08/05 08:30 5.9 82 5.92 3.1 19 22 1022.8 0 14.2 24.1 33.0 86.1 72.2 245.4
08/05 08:20 5.8 81 5.81 2.8 17 20 1022.8 0 13.9 24.0 32.6 85.0 70.8 240.6
08/05 08:10 5.7 81 5.77 2.7 13 15 1022.6 0 13.9 23.9 32.5 84.7 70.4 239.0
08/05 08:00 5.6 82 5.8 2.8 17 19 1022.7 0 13.9 24.0 32.7 85.1 70.9 240.7
08/05 07:50 5.4 83 5.79 2.8 15 17 1022.7 0 13.9 24.0 32.7 85.3 70.9 240.9
08/05 07:40 5.3 83 5.76 2.7 15 19 1022.6 0 13.9 24.0 32.6 85.0 70.6 239.8
08/05 07:30 5.2 83 5.72 2.6 15 20 1022.6 0 13.8 24.0 32.5 84.7 70.1 238.2
08/05 07:20 5 83 5.64 2.4 15 19 1022.5 0 13.6 23.9 32.2 84.0 69.3 235.0
08/05 07:10 4.9 83 5.61 2.3 13 13 1022.3 0 13.5 23.9 32.2 83.8 68.9 233.9
08/05 07:00 4.8 83 5.57 2.2 11 15 1022.1 0 13.5 23.8 32.0 83.5 68.5 232.3
08/05 06:50 4.6 84 5.56 2.1 13 15 1022.1 0 13.5 23.8 32.1 83.6 68.5 232.4
08/05 06:40 4.6 83 5.5 2 15 17 1022 0 13.3 23.7 31.8 82.9 67.7 229.6
08/05 06:30 4.6 84 5.56 2.1 13 17 1021.8 0 13.5 23.8 32.1 83.5 68.5 232.3
08/05 06:20 4.8 84 5.64 2.3 11 13 1021.9 0 13.6 23.9 32.3 84.2 69.4 235.5
08/05 06:10 4.8 83 5.57 2.2 19 20 1022 0 13.5 23.8 32.0 83.5 68.5 232.2
08/05 06:00 4.9 82 5.54 2.1 17 22 1021.9 0 13.4 23.7 31.9 83.0 68.0 230.5
08/05 05:50 4.9 82 5.54 2.1 15 17 1021.9 0 13.4 23.7 31.9 83.0 68.0 230.5
08/05 05:40 4.9 82 5.54 2.1 17 19 1021.9 0 13.4 23.7 31.9 83.0 68.0 230.5
08/05 05:30 4.9 83 5.61 2.3 17 20 1021.7 0 13.5 23.8 32.1 83.8 68.9 233.8
08/05 05:20 5 82 5.58 2.2 20 22 1021.6 0 13.5 23.8 32.0 83.3 68.4 232.0
08/05 05:10 5 82 5.58 2.2 26 28 1021.6 0 13.5 23.8 32.0 83.3 68.4 232.0
08/05 05:00 5 83 5.64 2.4 20 30 1021.6 0 13.6 23.9 32.2 84.0 69.2 234.8
08/05 04:50 4.8 83 5.57 2.2 17 19 1021.4 0 13.5 23.8 32.0 83.4 68.4 232.1
08/05 04:40 4.7 83 5.53 2.1 19 22 1021.5 0 13.4 23.7 31.9 83.1 68.0 230.6
08/05 04:30 4.5 84 5.53 2 15 20 1021.4 0 13.4 23.8 32.0 83.3 68.2 231.1
08/05 04:20 4.3 85 5.52 2 11 13 1021.3 0 13.4 23.8 32.0 83.4 68.2 231.2
08/05 04:10 4.1 85 5.44 1.8 11 11 1021.1 0 13.2 23.7 31.7 82.7 67.3 228.0
08/05 04:00 4.2 85 5.48 1.9 13 15 1021.2 0 13.3 23.8 31.9 83.0 67.7 229.6
08/05 03:50 4.1 84 5.38 1.6 15 17 1021.2 0 13.1 23.7 31.5 82.1 66.5 225.2
08/05 03:40 4 84 5.35 1.5 15 17 1021.3 0 13.0 23.6 31.4 81.9 66.2 224.1
08/05 03:30 4 84 5.35 1.5 15 20 1021.6 0 13.0 23.6 31.4 81.9 66.2 224.2
08/05 03:20 3.9 84 5.31 1.4 17 17 1021.5 0 12.9 23.6 31.3 81.5 65.7 222.6
08/05 03:10 3.7 85 5.3 1.4 17 19 1021.6 0 12.9 23.6 31.4 81.7 65.8 222.7
08/05 03:00 3.5 86 5.29 1.4 15 20 1021.7 0 12.9 23.7 31.4 81.8 65.8 222.8
08/05 02:50 3.1 85 5.09 0.8 17 19 1021.8 0 12.5 23.5 30.7 80.0 63.5 214.5
08/05 02:40 3.3 84 5.1 0.9 13 15 1021.6 0 12.5 23.4 30.7 79.9 63.5 214.4
08/05 02:30 3.2 84 5.07 0.8 11 17 1021.5 0 12.4 23.4 30.6 79.7 63.1 213.3
08/05 02:20 2.8 84 4.93 0.4 11 13 1021.6 0 12.2 23.3 30.2 78.6 61.6 207.8
08/05 02:10 3.4 84 5.14 1 6 9 1021.8 0 12.6 23.5 30.8 80.3 63.9 216.1
08/05 02:00 3.5 84 5.17 1.1 7 11 1021.8 0 12.7 23.5 30.9 80.5 64.2 217.2
08/05 01:50 3.3 83 5.04 0.7 6 7 1022 0 12.4 23.3 30.5 79.3 62.7 211.7
08/05 01:40 3.4 82 5.01 0.6 9 11 1022 0 12.3 23.3 30.3 78.9 62.2 210.0
08/05 01:30 3.6 82 5.08 0.8 15 20 1022 0 12.5 23.3 30.5 79.4 63.0 212.8
08/05 01:20 3.1 83 4.97 0.5 13 13 1022.1 0 12.2 23.3 30.3 78.8 61.9 209.0
08/05 01:10 2.9 84 4.97 0.5 11 15 1022.2 0 12.2 23.3 30.4 79.0 62.1 209.5
08/05 01:00 3 82 4.88 0.2 15 19 1022 0 12.0 23.2 29.9 77.9 60.8 205.0
08/05 00:50 3.2 81 4.89 0.3 17 20 1022.1 0 12.1 23.1 29.9 77.8 60.8 205.0
08/05 00:40 3.2 81 4.89 0.3 17 19 1022.1 0 12.1 23.1 29.9 77.8 60.8 205.0
08/05 00:20 3.3 81 4.92 0.4 17 19 1022.1 0 12.1 23.1 30.0 78.0 61.1 206.1
08/05 00:10 3.3 82 4.98 0.5 17 19 1022.3 0 12.3 23.3 30.2 78.7 61.9 209.0
08/05 00:00 2.5 84 4.83 0.1 15 20 1022.4 0 12.0 23.2 29.9 77.9 60.5 204.1
07/05 23:50 2.6 82 4.75 -0.2 13 15 1022.3 0 11.8 23.1 29.6 76.9 59.4 200.1
07/05 23:40 2.7 82 4.78 -0.1 17 20 1022.2 0 11.8 23.1 29.7 77.1 59.7 201.2
07/05 23:30 2.4 82 4.69 -0.4 15 19 1022.3 0 11.7 23.0 29.4 76.5 58.8 197.8
07/05 23:20 2.5 81 4.66 -0.4 15 19 1022.2 0 11.6 22.9 29.3 76.0 58.3 196.1
07/05 23:10 2.7 82 4.78 -0.1 17 19 1022.3 0 11.8 23.1 29.7 77.1 59.7 201.2
07/05 23:00 2.2 83 4.68 -0.4 9 13 1022.3 0 11.6 23.1 29.5 76.6 58.8 197.8
07/05 22:50 2.4 82 4.69 -0.4 11 11 1022.4 0 11.7 23.0 29.4 76.5 58.8 197.8
07/05 22:40 2.9 80 4.73 -0.2 13 13 1022.3 0 11.7 23.0 29.4 76.4 58.9 198.4
07/05 22:30 3 80 4.76 -0.1 17 20 1022.4 0 11.8 23.0 29.5 76.6 59.2 199.5
07/05 22:20 3 79 4.7 -0.3 17 20 1022.2 0 11.7 22.9 29.2 76.0 58.4 196.7
07/05 22:10 3.2 78 4.7 -0.3 20 22 1022.1 0 11.7 22.8 29.2 75.8 58.3 196.2
07/05 22:00 3.2 78 4.7 -0.3 22 28 1022.1 0 11.7 22.8 29.2 75.8 58.3 196.2
07/05 21:50 3.6 75 4.65 -0.4 24 28 1022.2 0 11.5 22.6 28.8 74.9 57.3 193.0
07/05 21:40 3.7 75 4.68 -0.3 20 26 1022.3 0 11.6 22.7 28.9 75.1 57.7 194.1
07/05 21:30 4 74 4.71 -0.2 19 26 1022.4 0 11.6 22.6 28.9 75.1 57.8 194.8
07/05 21:20 3.7 75 4.68 -0.3 19 20 1022.2 0 11.6 22.7 28.9 75.1 57.6 194.1
07/05 21:10 4 73 4.65 -0.4 22 24 1022.2 0 11.5 22.5 28.7 74.5 57.0 192.0
07/05 21:00 3.6 76 4.71 -0.2 17 20 1021.9 0 11.7 22.7 29.0 75.5 58.1 195.7
07/05 20:50 3.1 77 4.61 -0.5 15 17 1022.1 0 11.5 22.7 28.8 74.9 57.2 192.3
07/05 20:40 3.3 75 4.55 -0.7 13 15 1022 0 11.3 22.6 28.5 74.1 56.2 189.1
07/05 20:30 3.8 73 4.58 -0.6 19 20 1021.9 0 11.4 22.5 28.5 73.9 56.3 189.2
07/05 20:20 3.8 73 4.58 -0.6 17 19 1022.2 0 11.4 22.5 28.5 74.0 56.3 189.3
07/05 20:10 3.8 71 4.46 -1 11 15 1022.1 0 11.1 22.3 28.0 72.7 54.7 183.8
07/05 20:00 4.1 70 4.48 -0.9 17 26 1021.9 0 11.2 22.2 28.0 72.6 54.8 184.0
07/05 19:50 4.2 69 4.45 -1 17 20 1022.1 0 11.1 22.2 27.8 72.2 54.3 182.5

Last Refresh: 08-May-2026 12:09:25

Bureau of Meteorology